Time;durP1;ratioP1;P1;durP2;ratioP2;P2;SDS_P1;SDS_P2;PMS_P1;PMS_P2;Temp;Humidity;BMP_temperature;BMP_pressure;BME280_temperature;BME280_humidity;BME280_pressure;Samples;Min_cycle;Max_cycle;Signal;HPM_P1;HPM_P2
2023/07/09 00:00:25;;;;;;;5.80;3.53;;;;;;;27.03;37.45;100116.62;4498177;31;33835;-67
2023/07/09 00:02:53;;;;;;;5.45;3.40;;;;;;;27.03;37.38;100122.09;4499208;31;34094;-67
2023/07/09 00:05:21;;;;;;;4.97;3.08;;;;;;;27.01;37.32;100116.03;4499297;31;34351;-67
2023/07/09 00:07:49;;;;;;;5.90;3.35;;;;;;;26.99;37.31;100119.00;4497963;31;34780;-67
2023/07/09 00:10:18;;;;;;;5.93;3.72;;;;;;;26.98;37.27;100122.81;4497738;31;34524;-67
2023/07/09 00:12:46;;;;;;;4.75;3.22;;;;;;;26.96;37.37;100124.97;4485067;31;34370;-68
2023/07/09 00:15:16;;;;;;;7.05;3.62;;;;;;;26.96;37.27;100130.47;4485008;31;33847;-68
2023/07/09 00:17:44;;;;;;;8.80;3.65;;;;;;;26.96;37.24;100131.28;4497797;31;33984;-67
2023/07/09 00:20:18;;;;;;;6.85;3.28;;;;;;;26.95;37.24;100126.91;4497834;31;33741;-67
2023/07/09 00:22:51;;;;;;;7.55;3.83;;;;;;;26.94;37.33;100127.12;4479763;32;33339;-67
2023/07/09 00:25:20;;;;;;;6.55;4.20;;;;;;;26.94;37.39;100129.84;4483160;32;33538;-67
2023/07/09 00:27:49;;;;;;;7.20;4.20;;;;;;;26.93;37.40;100129.03;4469077;32;33819;-67
2023/07/09 00:30:21;;;;;;;6.57;3.67;;;;;;;26.91;37.47;100122.97;4484610;31;33901;-67
2023/07/09 00:32:51;;;;;;;6.18;3.67;;;;;;;26.92;37.47;100119.16;4484926;31;34257;-67
2023/07/09 00:35:20;;;;;;;6.32;3.60;;;;;;;26.91;37.35;100122.16;4484756;31;33810;-67
2023/07/09 00:37:48;;;;;;;7.12;3.70;;;;;;;26.90;37.26;100123.19;4484543;31;33802;-67
2023/07/09 00:40:20;;;;;;;5.70;3.42;;;;;;;26.88;37.28;100123.44;4498872;31;34659;-67
2023/07/09 00:42:50;;;;;;;5.65;3.50;;;;;;;26.86;37.33;100125.59;4484496;31;32938;-67
2023/07/09 00:45:20;;;;;;;5.97;3.17;;;;;;;26.86;37.34;100128.34;4498705;31;33612;-67
2023/07/09 00:47:50;;;;;;;6.05;3.35;;;;;;;26.86;37.33;100130.22;4486629;31;34763;-68
2023/07/09 00:50:45;;;;;;;5.20;3.60;;;;;;;26.84;37.31;100124.16;4486991;31;33505;-67
2023/07/09 00:53:45;;;;;;;5.53;3.75;;;;;;;26.85;37.25;100128.56;4487120;31;34171;-67
2023/07/09 00:56:20;;;;;;;7.43;3.40;;;;;;;26.86;37.14;100122.88;4500991;31;33924;-67
2023/07/09 00:58:47;;;;;;;8.00;3.87;;;;;;;26.83;37.22;100122.50;4474702;31;33229;-67
2023/07/09 01:01:18;;;;;;;6.47;3.45;;;;;;;26.82;37.27;100115.37;4500929;31;34053;-67
2023/07/09 01:03:53;;;;;;;5.90;3.60;;;;;;;26.79;37.28;100113.94;4486844;31;33563;-67
2023/07/09 01:06:26;;;;;;;6.47;3.53;;;;;;;26.79;37.24;100115.84;4474481;31;33723;-67
2023/07/09 01:08:54;;;;;;;5.80;3.42;;;;;;;26.77;37.29;100115.28;4474069;31;34024;-67
2023/07/09 01:11:22;;;;;;;6.75;3.45;;;;;;;26.77;37.27;100118.00;4486569;31;33902;-67
2023/07/09 01:14:01;;;;;;;5.55;3.55;;;;;;;26.76;37.26;100119.88;4486600;31;33041;-67
2023/07/09 01:16:37;;;;;;;5.07;3.25;;;;;;;26.75;37.27;100120.97;4474859;31;33707;-67
2023/07/09 01:19:05;;;;;;;5.97;3.35;;;;;;;26.75;37.30;100114.66;4486568;31;34810;-68
2023/07/09 01:21:34;;;;;;;7.93;3.60;;;;;;;26.73;37.35;100112.19;4500842;31;33920;-67
2023/07/09 01:24:15;;;;;;;6.10;3.30;;;;;;;26.74;37.30;100113.00;4486254;31;34055;-67
2023/07/09 01:26:45;;;;;;;5.18;3.10;;;;;;;26.73;37.34;100114.09;4474050;31;34655;-67
2023/07/09 01:29:13;;;;;;;8.50;3.50;;;;;;;26.69;37.38;100109.09;4486383;31;33981;-68
2023/07/09 01:31:40;;;;;;;7.20;3.40;;;;;;;26.69;37.45;100114.56;4500738;31;34476;-68
2023/07/09 01:34:08;;;;;;;6.40;3.53;;;;;;;26.68;37.42;100115.63;4500792;31;34618;-68
2023/07/09 01:36:39;;;;;;;5.80;3.62;;;;;;;26.68;37.42;100118.37;4499757;31;33811;-67
2023/07/09 01:39:07;;;;;;;5.32;3.42;;;;;;;26.69;37.46;100119.19;4500677;31;34123;-67
2023/07/09 01:41:37;;;;;;;5.10;3.47;;;;;;;26.67;37.45;100119.47;4499526;31;33908;-67
2023/07/09 01:44:04;;;;;;;5.82;3.58;;;;;;;26.66;37.44;100115.03;4500399;31;33126;-67
2023/07/09 01:46:32;;;;;;;5.57;3.37;;;;;;;26.65;37.47;100127.06;4500899;31;34067;-67
2023/07/09 01:49:00;;;;;;;5.90;3.70;;;;;;;26.62;37.50;100122.06;4500693;31;34535;-67
2023/07/09 01:51:28;;;;;;;6.82;3.65;;;;;;;26.62;37.45;100122.06;4500268;31;34019;-67
2023/07/09 01:53:55;;;;;;;6.10;3.65;;;;;;;26.61;37.43;100128.59;4486342;31;34273;-67
2023/07/09 01:56:24;;;;;;;5.62;3.40;;;;;;;26.60;37.45;100126.13;4499358;31;34651;-67
2023/07/09 01:58:51;;;;;;;5.53;3.50;;;;;;;26.60;37.41;100128.84;4500249;31;33932;-67
2023/07/09 02:01:19;;;;;;;6.95;3.92;;;;;;;26.59;37.40;100133.50;4499395;31;33896;-67
2023/07/09 02:03:47;;;;;;;6.40;3.50;;;;;;;26.59;37.44;100133.50;4500533;31;33134;-67
2023/07/09 02:06:15;;;;;;;6.65;3.70;;;;;;;26.58;37.46;100130.97;4500407;31;34465;-67
2023/07/09 02:08:43;;;;;;;7.50;3.72;;;;;;;26.57;37.50;100137.53;4500483;31;33940;-67
2023/07/09 02:11:10;;;;;;;5.45;3.42;;;;;;;26.56;37.51;100139.44;4500386;31;34163;-67
2023/07/09 02:13:38;;;;;;;7.03;3.45;;;;;;;26.55;37.54;100143.25;4500333;31;33173;-67
2023/07/09 02:16:06;;;;;;;5.75;3.67;;;;;;;26.54;37.58;100136.13;4500396;31;34783;-67
2023/07/09 02:18:34;;;;;;;6.30;3.78;;;;;;;26.53;37.57;100142.66;4500437;31;34659;-67
2023/07/09 02:21:02;;;;;;;6.50;3.33;;;;;;;26.51;37.55;100144.81;4500301;31;33893;-67
2023/07/09 02:23:29;;;;;;;5.47;3.70;;;;;;;26.50;37.54;100145.87;4488665;31;34196;-68
2023/07/09 02:25:58;;;;;;;5.78;3.62;;;;;;;26.51;37.51;100154.91;4484570;32;33738;-67
2023/07/09 02:28:26;;;;;;;6.60;3.30;;;;;;;26.50;37.47;100147.78;4484535;32;34538;-67
2023/07/09 02:30:53;;;;;;;5.62;3.42;;;;;;;26.50;37.51;100150.53;4490147;31;33883;-67
2023/07/09 02:33:23;;;;;;;6.22;3.50;;;;;;;26.48;37.43;100153.47;4500632;31;33159;-67
2023/07/09 02:35:50;;;;;;;7.35;3.53;;;;;;;26.47;37.45;100151.81;4500351;31;33155;-67
2023/07/09 02:38:18;;;;;;;7.40;3.78;;;;;;;26.46;37.43;100155.63;4500288;31;34790;-67
2023/07/09 02:40:46;;;;;;;6.50;3.78;;;;;;;26.45;37.47;100153.97;4500130;31;34769;-67
2023/07/09 02:43:14;;;;;;;6.30;3.80;;;;;;;26.44;37.48;100153.16;4500135;31;34345;-68
2023/07/09 02:45:42;;;;;;;5.53;3.53;;;;;;;26.44;37.42;100149.59;4500443;31;33685;-67
2023/07/09 02:48:10;;;;;;;6.62;3.40;;;;;;;26.44;37.49;100152.31;4486167;31;34820;-67
2023/07/09 02:50:39;;;;;;;7.70;3.58;;;;;;;26.42;37.49;100147.03;4500448;31;34414;-68
2023/07/09 02:53:06;;;;;;;5.18;3.00;;;;;;;26.42;37.53;100147.03;4500573;31;33342;-67
2023/07/09 02:55:34;;;;;;;5.43;3.40;;;;;;;26.42;37.48;100152.50;4485688;31;32797;-67
2023/07/09 02:58:02;;;;;;;5.03;3.08;;;;;;;26.40;37.50;100149.19;4485935;31;34009;-68
2023/07/09 03:00:30;;;;;;;5.70;3.42;;;;;;;26.41;37.48;100152.75;4485747;31;33206;-67
2023/07/09 03:02:58;;;;;;;6.77;4.20;;;;;;;26.39;37.49;100152.13;4500189;31;33174;-67
2023/07/09 03:05:26;;;;;;;8.02;4.12;;;;;;;26.40;37.45;100151.91;4500190;31;33583;-68
2023/07/09 03:07:53;;;;;;;6.10;3.53;;;;;;;26.38;37.48;100153.22;4485874;31;33709;-67
2023/07/09 03:10:21;;;;;;;5.32;3.25;;;;;;;26.37;37.50;100157.84;4484916;31;33807;-67
2023/07/09 03:12:49;;;;;;;5.50;3.58;;;;;;;26.36;37.56;100158.94;4500149;31;33319;-67
2023/07/09 03:15:16;;;;;;;6.20;3.87;;;;;;;26.36;37.53;100160.84;4500086;31;33901;-67
2023/07/09 03:17:44;;;;;;;6.87;3.60;;;;;;;26.35;37.51;100160.00;4499699;31;33912;-68
2023/07/09 03:20:13;;;;;;;6.57;3.85;;;;;;;26.33;37.46;100162.13;4499914;31;33931;-67
2023/07/09 03:22:40;;;;;;;7.10;3.83;;;;;;;26.32;37.44;100167.84;4499876;31;33330;-67
2023/07/09 03:25:08;;;;;;;5.72;3.50;;;;;;;26.32;37.44;100168.69;4499656;31;34171;-67
2023/07/09 03:27:35;;;;;;;6.47;3.70;;;;;;;26.31;37.43;100160.72;4499954;31;34731;-67
2023/07/09 03:30:04;;;;;;;6.30;3.97;;;;;;;26.30;37.47;100168.09;4499583;31;34022;-68
2023/07/09 03:32:31;;;;;;;5.25;3.50;;;;;;;26.31;37.47;100174.41;4499551;31;33538;-68
2023/07/09 03:34:59;;;;;;;5.80;3.62;;;;;;;26.31;37.45;100174.41;4499729;31;33655;-67
2023/07/09 03:37:27;;;;;;;5.80;3.60;;;;;;;26.31;37.43;100174.41;4498833;31;33228;-67
2023/07/09 03:39:55;;;;;;;5.72;3.50;;;;;;;26.30;37.41;100172.72;4499572;31;34686;-67
2023/07/09 03:42:22;;;;;;;5.93;3.75;;;;;;;26.30;37.43;100172.72;4499729;31;33357;-67
2023/07/09 03:44:50;;;;;;;6.55;3.85;;;;;;;26.29;37.43;100171.06;4499549;31;34622;-67
2023/07/09 03:47:18;;;;;;;5.72;3.17;;;;;;;26.28;37.41;100170.22;4499462;31;34769;-67
2023/07/09 03:49:45;;;;;;;5.43;3.60;;;;;;;26.28;37.42;100175.69;4499578;31;34583;-66
2023/07/09 03:52:13;;;;;;;6.03;3.72;;;;;;;26.28;37.42;100170.22;4499511;31;33416;-67
2023/07/09 03:54:41;;;;;;;7.30;3.25;;;;;;;26.28;37.44;100169.41;4499324;31;33714;-67
2023/07/09 03:57:08;;;;;;;5.97;3.40;;;;;;;26.28;37.40;100170.22;4499520;31;34048;-67
2023/07/09 03:59:37;;;;;;;6.55;3.90;;;;;;;26.26;37.44;100166.06;4499643;31;33799;-67
2023/07/09 04:02:05;;;;;;;5.65;3.65;;;;;;;26.27;37.46;100173.19;4499342;31;33926;-67
2023/07/09 04:04:32;;;;;;;5.95;3.60;;;;;;;26.25;37.50;100167.94;4499149;31;32794;-67
2023/07/09 04:07:00;;;;;;;5.32;3.28;;;;;;;26.25;37.56;100169.84;4499360;31;34634;-67
2023/07/09 04:09:28;;;;;;;6.65;3.90;;;;;;;26.24;37.63;100165.47;4499093;31;33374;-67
2023/07/09 04:11:55;;;;;;;6.28;3.37;;;;;;;26.24;37.67;100173.66;4499250;31;33131;-67
2023/07/09 04:14:23;;;;;;;5.62;3.30;;;;;;;26.23;37.74;100167.38;4499210;31;33499;-67
2023/07/09 04:16:50;;;;;;;5.90;3.50;;;;;;;26.22;37.77;100171.19;4499083;31;33528;-68
2023/07/09 04:19:18;;;;;;;5.95;4.00;;;;;;;26.24;37.83;100168.19;4498935;31;34807;-68
2023/07/09 04:21:46;;;;;;;6.25;3.87;;;;;;;26.24;37.88;100179.13;4499088;31;34428;-67
2023/07/09 04:24:17;;;;;;;6.57;3.80;;;;;;;26.23;37.95;100172.84;4500940;31;34606;-68
2023/07/09 04:26:45;;;;;;;6.20;4.07;;;;;;;26.24;37.98;100169.03;4487231;31;34740;-67
2023/07/09 04:29:13;;;;;;;5.60;3.72;;;;;;;26.25;38.00;100175.31;4499860;31;33527;-68
2023/07/09 04:31:41;;;;;;;7.45;4.00;;;;;;;26.23;38.03;100174.75;4501045;31;33455;-68
2023/07/09 04:34:09;;;;;;;7.40;3.90;;;;;;;26.23;38.08;100170.09;4501477;31;33979;-68
2023/07/09 04:36:37;;;;;;;7.53;3.85;;;;;;;26.24;38.09;100169.03;4501287;31;33582;-67
2023/07/09 04:39:04;;;;;;;6.30;3.83;;;;;;;26.24;38.10;100171.75;4501045;31;33448;-67
2023/07/09 04:41:32;;;;;;;6.10;3.50;;;;;;;26.24;38.09;100165.47;4501162;31;33307;-67
2023/07/09 04:44:00;;;;;;;7.70;4.35;;;;;;;26.24;38.10;100170.94;4486653;31;33886;-68
2023/07/09 04:46:28;;;;;;;4.95;3.53;;;;;;;26.26;38.07;100166.91;4500950;31;33747;-67
2023/07/09 04:48:56;;;;;;;5.80;3.60;;;;;;;26.26;38.07;100177.00;4501102;31;33626;-67
2023/07/09 04:51:23;;;;;;;6.90;3.70;;;;;;;26.27;38.08;100174.03;4500850;31;33529;-67
2023/07/09 04:53:51;;;;;;;5.65;3.67;;;;;;;26.29;38.08;100182.00;4501034;31;34617;-67
2023/07/09 04:56:19;;;;;;;5.93;3.50;;;;;;;26.30;38.05;100175.44;4498585;31;34762;-67
2023/07/09 04:58:47;;;;;;;6.43;3.80;;;;;;;26.29;38.06;100180.09;4483852;32;33933;-67
2023/07/09 05:01:16;;;;;;;7.45;4.03;;;;;;;26.30;38.03;100172.72;4485213;32;34178;-67
2023/07/09 05:03:44;;;;;;;7.30;3.83;;;;;;;26.32;38.01;100184.28;4485025;31;34140;-67
2023/07/09 05:06:14;;;;;;;7.53;3.67;;;;;;;26.32;38.03;100181.53;4484987;32;33253;-67
2023/07/09 05:08:42;;;;;;;8.77;3.70;;;;;;;26.32;38.08;100181.53;4484125;32;34711;-67
2023/07/09 05:11:10;;;;;;;6.70;3.90;;;;;;;26.34;38.04;100185.69;4485128;32;33184;-67
2023/07/09 05:13:38;;;;;;;5.78;3.58;;;;;;;26.34;38.09;100179.37;4483738;32;33907;-67
2023/07/09 05:16:05;;;;;;;10.05;3.42;;;;;;;26.34;38.11;100188.41;4485342;32;33938;-67
2023/07/09 05:18:33;;;;;;;9.75;3.83;;;;;;;26.34;38.13;100184.84;4484947;32;33804;-67
2023/07/09 05:21:01;;;;;;;5.07;3.22;;;;;;;26.35;38.15;100181.91;4485173;32;33463;-67
2023/07/09 05:23:28;;;;;;;6.78;3.42;;;;;;;26.38;38.21;100183.31;4495456;31;34684;-68
2023/07/09 05:25:57;;;;;;;5.35;3.45;;;;;;;26.39;38.30;100184.97;4500607;31;33702;-68
2023/07/09 05:28:25;;;;;;;5.82;3.55;;;;;;;26.40;38.32;100183.91;4486328;31;33814;-68
2023/07/09 05:30:52;;;;;;;6.90;3.40;;;;;;;26.41;38.31;100185.59;4499939;31;33145;-68
2023/07/09 05:33:20;;;;;;;6.15;3.58;;;;;;;26.43;38.31;100180.72;4490541;31;33723;-69
2023/07/09 05:35:48;;;;;;;6.47;3.15;;;;;;;26.44;38.33;100190.63;4489245;31;34531;-69
2023/07/09 05:38:15;;;;;;;5.90;3.70;;;;;;;26.46;38.35;100193.94;4493103;31;34549;-69
2023/07/09 05:40:43;;;;;;;5.72;3.67;;;;;;;26.47;38.38;100184.66;4500651;31;33352;-68
2023/07/09 05:43:11;;;;;;;5.93;3.47;;;;;;;26.47;38.35;100184.66;4489205;31;34572;-68
2023/07/09 05:45:39;;;;;;;5.68;3.67;;;;;;;26.49;38.38;100189.87;4484668;32;33889;-68
2023/07/09 05:48:07;;;;;;;7.25;3.92;;;;;;;26.48;38.33;100194.53;4470564;32;33625;-68
2023/07/09 05:50:34;;;;;;;8.88;3.92;;;;;;;26.49;38.28;100192.63;4485045;32;33136;-67
2023/07/09 05:53:02;;;;;;;6.40;3.70;;;;;;;26.49;38.31;100188.00;4483554;32;33546;-67
2023/07/09 05:55:30;;;;;;;6.18;3.50;;;;;;;26.51;38.33;100188.59;4494442;31;32978;-68
2023/07/09 05:57:57;;;;;;;5.50;2.95;;;;;;;26.52;38.36;100189.41;4500528;31;33894;-68
2023/07/09 06:00:25;;;;;;;8.82;3.70;;;;;;;26.53;38.38;100191.91;4500506;31;34006;-68
2023/07/09 06:02:52;;;;;;;7.35;3.80;;;;;;;26.55;38.46;100197.16;4499110;31;32762;-68
2023/07/09 06:05:20;;;;;;;7.45;3.72;;;;;;;26.56;38.49;100193.34;4500777;31;33915;-68
2023/07/09 06:07:48;;;;;;;8.20;4.03;;;;;;;26.57;38.54;100195.00;4500867;31;33853;-69
2023/07/09 06:10:16;;;;;;;6.50;3.60;;;;;;;26.59;38.56;100199.19;4486167;31;33868;-69
2023/07/09 06:12:44;;;;;;;6.80;3.40;;;;;;;26.59;38.64;100192.87;4499032;31;34134;-69
2023/07/09 06:15:11;;;;;;;6.15;3.97;;;;;;;26.60;38.71;100197.28;4500497;31;34803;-68
2023/07/09 06:17:39;;;;;;;6.05;3.53;;;;;;;26.62;38.90;100190.47;4500312;31;34670;-68
2023/07/09 06:20:07;;;;;;;6.12;3.25;;;;;;;26.62;38.96;100190.47;4500421;31;34060;-69
2023/07/09 06:22:35;;;;;;;7.82;3.60;;;;;;;26.64;39.08;100182.87;4495826;31;33752;-69
2023/07/09 06:25:03;;;;;;;7.53;3.47;;;;;;;26.66;39.10;100197.16;4484360;32;34021;-68
2023/07/09 06:27:31;;;;;;;5.43;3.58;;;;;;;26.68;39.33;100197.75;4484412;32;33804;-69
2023/07/09 06:29:58;;;;;;;7.32;4.03;;;;;;;26.69;39.45;100202.16;4481518;32;92304;-68
2023/07/09 06:32:26;;;;;;;5.97;3.67;;;;;;;26.75;39.47;100199.53;4483068;32;35943;-69
2023/07/09 06:34:54;;;;;;;7.45;3.58;;;;;;;26.75;39.40;100202.25;4483191;32;34404;-69
2023/07/09 06:37:21;;;;;;;6.93;3.58;;;;;;;26.76;39.30;100203.91;4484586;32;34253;-69
2023/07/09 06:39:49;;;;;;;8.18;3.97;;;;;;;26.79;39.25;100200.72;4483069;32;34229;-69
2023/07/09 06:42:17;;;;;;;7.97;4.00;;;;;;;26.82;39.40;100203.00;4484567;32;33694;-70
2023/07/09 06:44:46;;;;;;;8.07;4.22;;;;;;;26.88;38.07;100197.38;4483700;32;33550;-71
2023/07/09 06:47:14;;;;;;;6.87;4.03;;;;;;;26.89;38.33;100199.03;4484008;31;34221;-75
2023/07/09 06:49:41;;;;;;;9.75;3.80;;;;;;;26.89;38.46;100193.56;4490718;31;34398;-70
2023/07/09 06:52:09;;;;;;;5.93;3.70;;;;;;;26.91;38.71;100190.59;4497724;31;34769;-72
2023/07/09 06:54:37;;;;;;;10.70;3.75;;;;;;;26.92;38.93;100193.09;4491657;31;33488;-74
2023/07/09 06:57:04;;;;;;;5.90;3.53;;;;;;;26.92;38.92;100192.25;4497298;31;34380;-74
2023/07/09 06:59:32;;;;;;;6.87;3.67;;;;;;;26.93;38.97;100196.66;4500149;31;33439;-66
2023/07/09 07:02:00;;;;;;;6.43;3.50;;;;;;;26.93;38.99;100193.91;4499889;31;34589;-66
2023/07/09 07:04:27;;;;;;;7.37;4.20;;;;;;;26.93;38.99;100202.13;4498321;31;33992;-66
2023/07/09 07:06:56;;;;;;;9.65;3.65;;;;;;;26.93;38.97;100199.38;4498288;31;33710;-66
2023/07/09 07:09:24;;;;;;;6.90;4.00;;;;;;;26.93;38.98;100197.47;4499498;31;33154;-65
2023/07/09 07:11:52;;;;;;;7.47;3.78;;;;;;;26.94;38.96;100196.41;4499554;31;33929;-66
2023/07/09 07:14:19;;;;;;;5.82;3.62;;;;;;;26.95;38.95;100199.97;4499897;31;33803;-67
2023/07/09 07:16:47;;;;;;;7.82;3.70;;;;;;;26.95;38.95;100202.72;4499381;31;33702;-66
2023/07/09 07:19:15;;;;;;;6.95;3.35;;;;;;;26.96;38.95;100196.19;4496317;31;33456;-66
2023/07/09 07:21:42;;;;;;;5.78;3.80;;;;;;;26.95;38.95;100195.34;4489409;31;32831;-67
2023/07/09 07:24:11;;;;;;;6.75;3.85;;;;;;;26.95;38.91;100189.87;4497512;31;33611;-66
2023/07/09 07:26:38;;;;;;;7.65;3.90;;;;;;;26.96;38.88;100194.28;4498555;31;33462;-66
2023/07/09 07:29:06;;;;;;;5.97;3.55;;;;;;;26.97;38.87;100192.38;4499920;31;33489;-66
2023/07/09 07:31:34;;;;;;;6.37;4.30;;;;;;;26.99;38.86;100194.84;4499602;31;33656;-66
2023/07/09 07:34:01;;;;;;;6.35;3.92;;;;;;;26.98;38.83;100190.47;4499601;31;34708;-66
2023/07/09 07:36:29;;;;;;;5.53;3.70;;;;;;;26.99;38.77;100192.13;4498456;31;33572;-66
2023/07/09 07:39:00;;;;;;;7.60;4.03;;;;;;;27.00;38.71;100191.91;4499650;31;33985;-66
2023/07/09 07:41:27;;;;;;;7.22;3.90;;;;;;;26.99;38.69;100192.94;4499575;31;33868;-66
2023/07/09 07:43:55;;;;;;;5.82;4.00;;;;;;;27.01;38.60;100188.06;4499467;31;34347;-66
2023/07/09 07:46:23;;;;;;;6.95;3.70;;;;;;;27.03;38.57;100193.31;4499651;31;33847;-66
2023/07/09 07:48:50;;;;;;;5.57;3.83;;;;;;;27.01;38.51;100193.56;4499458;31;33525;-66
2023/07/09 07:51:18;;;;;;;7.93;3.95;;;;;;;27.02;38.43;100191.66;4499119;31;34654;-66
2023/07/09 07:53:46;;;;;;;5.70;3.40;;;;;;;27.02;38.38;100191.66;4499311;31;33940;-66
2023/07/09 07:56:13;;;;;;;7.37;3.72;;;;;;;27.03;38.33;100199.59;4499573;31;33483;-66
2023/07/09 07:58:41;;;;;;;6.95;4.35;;;;;;;27.03;38.31;100199.59;4501310;31;33422;-66
2023/07/09 08:01:09;;;;;;;5.72;3.62;;;;;;;27.04;38.28;100200.44;4501316;31;34831;-66
2023/07/09 08:03:37;;;;;;;6.43;3.40;;;;;;;27.04;38.26;100190.31;4501355;31;33426;-66
2023/07/09 08:06:04;;;;;;;5.85;3.87;;;;;;;27.05;38.25;100192.00;4501199;31;33665;-66
2023/07/09 08:08:32;;;;;;;5.87;3.72;;;;;;;27.07;38.42;100197.22;4501100;31;33449;-66
2023/07/09 08:11:04;;;;;;;12.68;4.07;;;;;;;27.08;38.42;100205.22;4499593;31;33973;-66
2023/07/09 08:13:36;;;;;;;6.00;3.50;;;;;;;27.08;38.46;100193.41;4474157;31;33321;-66
2023/07/09 08:16:05;;;;;;;5.87;3.87;;;;;;;27.09;38.54;100189.63;4499529;31;34099;-66
2023/07/09 08:18:33;;;;;;;9.88;3.95;;;;;;;27.11;38.59;100195.72;4499493;31;33244;-66
2023/07/09 08:21:00;;;;;;;6.05;3.83;;;;;;;27.11;38.65;100187.50;4499902;31;34667;-66
2023/07/09 08:23:28;;;;;;;6.10;4.10;;;;;;;27.12;38.74;100192.72;4490952;31;33632;-66
2023/07/09 08:25:56;;;;;;;5.78;3.40;;;;;;;27.13;38.77;100197.13;4483885;32;34354;-66
2023/07/09 08:28:24;;;;;;;6.25;3.97;;;;;;;27.12;38.82;100192.72;4485185;32;34261;-66
2023/07/09 08:30:53;;;;;;;8.82;3.60;;;;;;;27.12;38.77;100192.72;4463928;31;34554;-66
2023/07/09 08:33:20;;;;;;;7.43;4.03;;;;;;;27.13;38.75;100191.62;4481737;31;34003;-65
2023/07/09 08:35:51;;;;;;;6.70;3.62;;;;;;;27.14;38.91;100196.06;4500698;31;33572;-66
2023/07/09 08:38:20;;;;;;;8.75;4.30;;;;;;;27.15;39.01;100196.87;4493176;31;33823;-66
2023/07/09 08:40:53;;;;;;;7.90;4.30;;;;;;;27.15;39.06;100189.50;4500890;31;33843;-65
2023/07/09 08:43:25;;;;;;;6.18;3.47;;;;;;;27.16;39.12;100193.06;4500782;31;33626;-66
2023/07/09 08:46:21;;;;;;;7.43;3.90;;;;;;;27.16;39.12;100193.91;4486893;31;33929;-66
2023/07/09 08:48:49;;;;;;;5.50;3.67;;;;;;;27.18;39.19;100190.91;4500887;31;34211;-66
2023/07/09 08:51:40;;;;;;;5.45;3.60;;;;;;;27.16;39.23;100180.19;4486639;31;33955;-66
2023/07/09 08:54:25;;;;;;;6.70;3.37;;;;;;;27.16;39.25;100185.69;4500477;31;34773;-66
2023/07/09 08:57:02;;;;;;;6.55;3.50;;;;;;;27.17;39.15;100184.59;4488319;31;33746;-66
2023/07/09 08:59:30;;;;;;;5.75;3.60;;;;;;;27.17;39.18;100175.56;4474250;31;33751;-66
2023/07/09 09:01:59;;;;;;;6.12;3.70;;;;;;;27.17;39.16;100183.78;4486575;31;34015;-66
2023/07/09 09:04:28;;;;;;;7.67;4.10;;;;;;;27.16;39.17;100184.84;4501007;31;34757;-66
2023/07/09 09:07:05;;;;;;;6.25;3.50;;;;;;;27.17;39.16;100187.34;4473106;31;34686;-66
2023/07/09 09:09:37;;;;;;;5.62;3.12;;;;;;;27.17;39.20;100176.37;4500765;31;33547;-66
2023/07/09 09:12:17;;;;;;;6.53;3.08;;;;;;;27.16;39.21;100182.94;4474121;31;33861;-67
2023/07/09 09:15:11;;;;;;;6.75;3.65;;;;;;;27.19;39.20;100176.16;4500786;31;34462;-66
2023/07/09 09:17:39;;;;;;;6.78;3.17;;;;;;;27.17;39.25;100173.63;4479552;31;34681;-65
2023/07/09 09:20:09;;;;;;;11.82;3.53;;;;;;;27.20;39.26;100183.28;4495453;31;34416;-66
2023/07/09 09:22:46;;;;;;;10.60;4.00;;;;;;;27.20;39.67;100186.88;4497027;31;33404;-66
2023/07/09 09:25:14;;;;;;;8.05;3.62;;;;;;;27.25;39.77;100182.56;4500190;31;34612;-66
2023/07/09 09:27:42;;;;;;;6.62;4.00;;;;;;;27.25;39.69;100174.34;4500269;31;34877;-66
2023/07/09 09:30:14;;;;;;;8.88;3.85;;;;;;;27.25;39.77;100191.62;4499019;31;33451;-66
2023/07/09 09:32:44;;;;;;;7.68;3.58;;;;;;;27.25;39.82;100186.13;4500320;31;34087;-66
2023/07/09 09:35:16;;;;;;;6.57;3.73;;;;;;;27.27;39.91;100189.44;4500300;31;34779;-66
2023/07/09 09:37:50;;;;;;;5.90;3.40;;;;;;;27.27;39.89;100183.16;4484458;32;34585;-66
2023/07/09 09:40:21;;;;;;;5.95;3.37;;;;;;;27.28;40.10;100187.53;4484631;32;33802;-66
2023/07/09 09:42:50;;;;;;;7.47;3.65;;;;;;;27.28;40.08;100187.53;4484489;32;33920;-66
2023/07/09 09:45:19;;;;;;;6.32;3.45;;;;;;;27.29;40.14;100194.72;4484491;32;34579;-66
2023/07/09 09:47:47;;;;;;;5.80;3.58;;;;;;;27.29;40.19;100190.06;4484595;32;33609;-66
2023/07/09 09:50:19;;;;;;;8.05;4.00;;;;;;;27.30;40.17;100186.25;4484427;32;33015;-66
2023/07/09 09:52:47;;;;;;;8.77;3.67;;;;;;;27.32;40.15;100180.50;4484821;32;33946;-66
2023/07/09 09:55:22;;;;;;;7.47;3.47;;;;;;;27.31;40.21;100185.16;4484822;32;33814;-66
2023/07/09 09:57:52;;;;;;;5.90;3.33;;;;;;;27.31;40.21;100178.84;4483479;32;34612;-66
2023/07/09 10:00:24;;;;;;;;;;;;;;;27.31;40.17;100184.31;4483879;32;33064;-66
2023/07/09 10:03:00;;;;;;;8.13;3.30;;;;;;;27.41;39.91;100182.63;4484579;32;34291;-66
2023/07/09 10:05:32;;;;;;;9.10;3.58;;;;;;;27.34;40.03;100186.59;4484486;32;34402;-66
2023/07/09 10:08:22;;;;;;;7.93;3.58;;;;;;;27.30;40.09;100171.72;4483326;32;34059;-66
2023/07/09 10:10:50;;;;;;;8.32;3.70;;;;;;;27.31;40.09;100176.94;4482583;32;33683;-66
2023/07/09 10:13:27;;;;;;;6.87;3.40;;;;;;;27.32;40.08;100175.84;4483251;32;33852;-66
2023/07/09 10:16:18;;;;;;;7.55;3.70;;;;;;;27.32;40.13;100175.84;4484514;32;34031;-66
2023/07/09 10:18:54;;;;;;;6.93;3.50;;;;;;;27.33;40.14;100171.22;4484373;32;34820;-66
2023/07/09 10:21:34;;;;;;;5.68;3.00;;;;;;;27.32;40.19;100172.28;4483455;32;34184;-66
2023/07/09 10:24:11;;;;;;;;;;;;;;;27.34;40.18;100170.97;4471002;32;33812;-66
2023/07/09 10:26:53;;;;;;;7.57;3.30;;;;;;;27.43;40.01;100171.44;4484488;31;35071;-65
2023/07/09 10:29:42;;;;;;;6.53;3.20;;;;;;;27.37;40.17;100167.75;4483097;32;33930;-66
2023/07/09 10:32:10;;;;;;;9.38;3.53;;;;;;;27.35;40.27;100169.91;4484356;32;33919;-66
2023/07/09 10:34:49;;;;;;;5.68;3.17;;;;;;;27.33;40.33;100172.06;4490299;31;33861;-66
2023/07/09 10:37:42;;;;;;;8.23;4.15;;;;;;;27.34;40.36;100167.41;4499042;31;35003;-67
2023/07/09 10:40:12;;;;;;;8.02;3.53;;;;;;;27.38;40.32;100174.06;4486617;31;33613;-67
2023/07/09 10:42:50;;;;;;;8.00;3.50;;;;;;;27.35;40.40;100169.91;4485676;31;34292;-67
2023/07/09 10:45:47;;;;;;;5.00;3.40;;;;;;;27.37;40.42;100175.97;4500308;31;33993;-67
2023/07/09 10:48:18;;;;;;;8.95;3.70;;;;;;;27.39;40.40;100173.00;4492831;31;33983;-67
2023/07/09 10:50:52;;;;;;;7.57;3.55;;;;;;;27.36;40.52;100171.56;4499019;31;34675;-65
2023/07/09 10:53:36;;;;;;;7.82;3.33;;;;;;;27.38;40.57;100165.84;4498176;31;34167;-65
2023/07/09 10:56:10;;;;;;;6.80;3.37;;;;;;;27.39;40.60;100162.03;4486061;31;33826;-65
2023/07/09 10:58:47;;;;;;;9.80;3.62;;;;;;;27.38;40.54;100165.84;4484143;31;34641;-64
2023/07/09 11:01:15;;;;;;;9.02;3.40;;;;;;;27.39;40.52;100164.78;4471204;31;34719;-65
2023/07/09 11:03:48;;;;;;;6.68;3.60;;;;;;;27.38;40.50;100160.38;4484519;31;33374;-65
2023/07/09 11:06:22;;;;;;;11.98;3.90;;;;;;;27.38;40.47;100160.38;4499199;31;33843;-65
2023/07/09 11:08:51;;;;;;;7.03;3.20;;;;;;;27.37;40.46;100165.03;4485183;31;34665;-65
2023/07/09 11:11:31;;;;;;;8.38;3.97;;;;;;;27.38;40.44;100163.13;4499377;31;33379;-65
2023/07/09 11:14:01;;;;;;;6.68;2.78;;;;;;;27.39;40.42;100160.13;4485755;31;33243;-64
2023/07/09 11:16:36;;;;;;;6.30;3.37;;;;;;;27.38;40.41;100154.88;4485824;31;34782;-64
2023/07/09 11:19:05;;;;;;;7.07;3.45;;;;;;;27.38;40.41;100155.72;4473312;31;34453;-64
2023/07/09 11:21:32;;;;;;;9.93;3.50;;;;;;;27.37;40.41;100158.69;4473138;31;33855;-65
2023/07/09 11:24:05;;;;;;;6.60;3.37;;;;;;;27.38;40.37;100155.72;4499926;31;34244;-64
2023/07/09 11:26:34;;;;;;;6.93;3.20;;;;;;;27.38;40.36;100152.97;4500039;31;34733;-64
2023/07/09 11:29:02;;;;;;;4.72;2.70;;;;;;;27.37;40.37;100147.72;4499832;31;34803;-64
2023/07/09 11:31:35;;;;;;;6.85;3.33;;;;;;;27.37;40.36;100155.94;4498887;31;33762;-64
2023/07/09 11:34:10;;;;;;;6.65;3.03;;;;;;;27.38;40.37;100147.50;4499777;31;33158;-67
2023/07/09 11:36:46;;;;;;;8.52;3.65;;;;;;;27.36;40.37;100152.37;4499919;31;34080;-64
2023/07/09 11:39:27;;;;;;;6.40;3.28;;;;;;;27.37;40.34;100142.25;4499789;31;33558;-64